Terminal Aerodrome Forecast
Issued by NWS

Current Version | Previous Version | Text Only | Print | Product List | Glossary Off
Versions: 1 2 3 4 5 6 7 8 9 10 11 12 13 14 15 16

000
FTUS42 KMHX 301125
TAFOAJ
TAF
KOAJ 301125Z 3012/3112 24007KT P6SM BKN050
     FM301900 25007KT P6SM VCTS BKN050CB
     FM302300 23003KT P6SM BKN070
      AMD LTD TO CLD VIS AND WIND=

USA.gov is the U.S. government's official web portal to all federal, state and local government web resources and services.